Aviation Digital Data Service (ADDS)

Output produced by METARs form (0431 UTC 22 September 2017)
found at http://www.aviationweather.gov/adds/metars/
 
WSAP 220400Z 19009KT 9999 FEW016TCU BKN300 31/24 Q1010
TAF WSAP 212300Z 2200/2306 20009KT 9999 FEW018CB SCT020 
     TEMPO 2202/2206 3000 TSRA FEW012CB BKN015
       
WSSL 220400Z 31004KT 240V010 8000 -SHRA FEW012 SCT017TCU 28/24 Q1010 RESHRA RMK 0330Z Q1011
TAF WSSL 212300Z 2200/2306 20009KT 9999 FEW018CB SCT020 
     TEMPO 2202/2206 3000 TSRA FEW012CB BKN015
       
WSSS 220400Z 20007KT 170V240 9999 FEW018TCU SCT020 BKN300 31/25 Q1011 NOSIG
TAF WSSS 212300Z 2200/2306 20009KT 9999 FEW018CB SCT020 
     TEMPO 2202/2206 3000 TSRA FEW012CB BKN015